sensor_id;sensor_type;location;lat;lon;timestamp;pressure;altitude;pressure_sealevel;temperature;humidity
58385;BME280;44185;47.844;8.966;2022-12-18T00:00:22;97108.66;;;-7.37;100.00
58385;BME280;44185;47.844;8.966;2022-12-18T00:02:47;97117.25;;;-7.33;100.00
58385;BME280;44185;47.844;8.966;2022-12-18T00:05:13;97117.25;;;-7.28;100.00
58385;BME280;44185;47.844;8.966;2022-12-18T00:07:38;97119.81;;;-7.20;100.00
58385;BME280;44185;47.844;8.966;2022-12-18T00:10:05;97116.41;;;-7.19;100.00
58385;BME280;44185;47.844;8.966;2022-12-18T00:12:30;97118.09;;;-7.26;100.00
58385;BME280;44185;47.844;8.966;2022-12-18T00:14:56;97112.94;;;-7.15;100.00
58385;BME280;44185;47.844;8.966;2022-12-18T00:17:23;97112.94;;;-7.12;100.00
58385;BME280;44185;47.844;8.966;2022-12-18T00:19:48;97107.81;;;-7.15;100.00
58385;BME280;44185;47.844;8.966;2022-12-18T00:22:17;97111.25;;;-7.19;100.00
58385;BME280;44185;47.844;8.966;2022-12-18T00:24:43;97130.09;;;-7.09;100.00
58385;BME280;44185;47.844;8.966;2022-12-18T00:27:08;97124.97;;;-7.09;100.00
58385;BME280;44185;47.844;8.966;2022-12-18T00:29:34;97119.81;;;-7.17;100.00
58385;BME280;44185;47.844;8.966;2022-12-18T00:31:59;97124.09;;;-7.07;100.00
58385;BME280;44185;47.844;8.966;2022-12-18T00:34:26;97121.53;;;-7.10;100.00
58385;BME280;44185;47.844;8.966;2022-12-18T00:36:51;97121.50;;;-7.08;100.00
58385;BME280;44185;47.844;8.966;2022-12-18T00:39:17;97124.06;;;-7.08;100.00
58385;BME280;44185;47.844;8.966;2022-12-18T00:41:42;97116.38;;;-7.05;100.00
58385;BME280;44185;47.844;8.966;2022-12-18T00:44:09;97120.66;;;-7.03;100.00
58385;BME280;44185;47.844;8.966;2022-12-18T00:46:35;97120.66;;;-7.04;100.00
58385;BME280;44185;47.844;8.966;2022-12-18T00:49:01;97125.78;;;-6.99;100.00
58385;BME280;44185;47.844;8.966;2022-12-18T00:51:28;97131.81;;;-7.04;100.00
58385;BME280;44185;47.844;8.966;2022-12-18T00:53:53;97136.06;;;-6.98;100.00
58385;BME280;44185;47.844;8.966;2022-12-18T00:56:22;97138.66;;;-7.03;100.00
58385;BME280;44185;47.844;8.966;2022-12-18T00:58:48;97144.66;;;-7.02;100.00
58385;BME280;44185;47.844;8.966;2022-12-18T01:01:13;97144.66;;;-6.97;100.00
58385;BME280;44185;47.844;8.966;2022-12-18T01:03:39;97142.94;;;-7.00;100.00
58385;BME280;44185;47.844;8.966;2022-12-18T01:06:06;97148.94;;;-6.98;100.00
58385;BME280;44185;47.844;8.966;2022-12-18T01:08:33;97152.41;;;-6.99;100.00
58385;BME280;44185;47.844;8.966;2022-12-18T01:10:58;97153.25;;;-6.97;100.00
58385;BME280;44185;47.844;8.966;2022-12-18T01:13:24;97142.09;;;-6.94;100.00
58385;BME280;44185;47.844;8.966;2022-12-18T01:15:50;97144.66;;;-6.94;100.00
58385;BME280;44185;47.844;8.966;2022-12-18T01:18:15;97156.66;;;-6.90;100.00
58385;BME280;44185;47.844;8.966;2022-12-18T01:20:41;97148.09;;;-6.92;100.00
58385;BME280;44185;47.844;8.966;2022-12-18T01:23:06;97153.25;;;-6.94;100.00
58385;BME280;44185;47.844;8.966;2022-12-18T01:25:35;97150.66;;;-6.89;100.00
58385;BME280;44185;47.844;8.966;2022-12-18T01:28:01;97155.78;;;-6.84;100.00
58385;BME280;44185;47.844;8.966;2022-12-18T01:30:26;97151.53;;;-6.92;100.00
58385;BME280;44185;47.844;8.966;2022-12-18T01:32:51;97161.81;;;-6.92;100.00
58385;BME280;44185;47.844;8.966;2022-12-18T01:35:17;97170.38;;;-6.97;100.00
58385;BME280;44185;47.844;8.966;2022-12-18T01:37:42;97166.94;;;-6.87;100.00
58385;BME280;44185;47.844;8.966;2022-12-18T01:40:09;97167.81;;;-6.86;100.00
58385;BME280;44185;47.844;8.966;2022-12-18T01:42:36;97177.25;;;-6.85;100.00
58385;BME280;44185;47.844;8.966;2022-12-18T01:45:05;97177.25;;;-6.90;100.00
58385;BME280;44185;47.844;8.966;2022-12-18T01:47:35;97178.97;;;-6.79;100.00
58385;BME280;44185;47.844;8.966;2022-12-18T01:50:05;97166.94;;;-6.76;100.00
58385;BME280;44185;47.844;8.966;2022-12-18T01:52:31;97174.66;;;-6.84;100.00
58385;BME280;44185;47.844;8.966;2022-12-18T01:54:59;97176.38;;;-6.81;100.00
58385;BME280;44185;47.844;8.966;2022-12-18T01:57:25;97179.81;;;-6.76;100.00
58385;BME280;44185;47.844;8.966;2022-12-18T01:59:56;97180.66;;;-6.74;100.00
58385;BME280;44185;47.844;8.966;2022-12-18T02:02:22;97182.38;;;-6.71;100.00
58385;BME280;44185;47.844;8.966;2022-12-18T02:04:47;97173.81;;;-6.75;100.00
58385;BME280;44185;47.844;8.966;2022-12-18T02:07:20;97176.38;;;-6.73;100.00
58385;BME280;44185;47.844;8.966;2022-12-18T02:09:51;97173.81;;;-6.72;100.00
58385;BME280;44185;47.844;8.966;2022-12-18T02:12:22;97182.34;;;-6.63;100.00
58385;BME280;44185;47.844;8.966;2022-12-18T02:14:55;97175.50;;;-6.66;100.00
58385;BME280;44185;47.844;8.966;2022-12-18T02:17:30;97165.22;;;-6.64;100.00
58385;BME280;44185;47.844;8.966;2022-12-18T02:20:05;97167.78;;;-6.67;100.00
58385;BME280;44185;47.844;8.966;2022-12-18T02:22:42;97170.38;;;-6.69;100.00
58385;BME280;44185;47.844;8.966;2022-12-18T02:25:26;97179.78;;;-6.63;100.00
58385;BME280;44185;47.844;8.966;2022-12-18T02:27:59;97169.47;;;-6.55;100.00
58385;BME280;44185;47.844;8.966;2022-12-18T02:30:26;97163.47;;;-6.57;100.00
58385;BME280;44185;47.844;8.966;2022-12-18T02:32:53;97156.63;;;-6.66;100.00
58385;BME280;44185;47.844;8.966;2022-12-18T02:35:23;97167.78;;;-6.63;100.00
58385;BME280;44185;47.844;8.966;2022-12-18T02:37:53;97165.22;;;-6.61;100.00
58385;BME280;44185;47.844;8.966;2022-12-18T02:40:20;97159.19;;;-6.57;100.00
58385;BME280;44185;47.844;8.966;2022-12-18T02:42:47;97167.78;;;-6.60;100.00
58385;BME280;44185;47.844;8.966;2022-12-18T02:45:14;97174.63;;;-6.55;100.00
58385;BME280;44185;47.844;8.966;2022-12-18T02:47:42;97177.19;;;-6.49;100.00
58385;BME280;44185;47.844;8.966;2022-12-18T02:50:16;97171.16;;;-6.43;100.00
58385;BME280;44185;47.844;8.966;2022-12-18T02:52:53;97179.72;;;-6.37;100.00
58385;BME280;44185;47.844;8.966;2022-12-18T02:55:32;97177.16;;;-6.33;100.00
58385;BME280;44185;47.844;8.966;2022-12-18T02:58:05;97183.19;;;-6.38;100.00
58385;BME280;44185;47.844;8.966;2022-12-18T03:00:36;97178.84;;;-6.34;100.00
58385;BME280;44185;47.844;8.966;2022-12-18T03:03:05;97177.97;;;-6.28;100.00
58385;BME280;44185;47.844;8.966;2022-12-18T03:05:36;97176.25;;;-6.20;100.00
58385;BME280;44185;47.844;8.966;2022-12-18T03:08:06;97183.00;;;-6.05;100.00
58385;BME280;44185;47.844;8.966;2022-12-18T03:10:38;97182.22;;;-6.10;100.00
58385;BME280;44185;47.844;8.966;2022-12-18T03:13:07;97185.69;;;-6.19;100.00
58385;BME280;44185;47.844;8.966;2022-12-18T03:15:39;97187.38;;;-6.11;100.00
58385;BME280;44185;47.844;8.966;2022-12-18T03:18:10;97191.69;;;-6.10;100.00
58385;BME280;44185;47.844;8.966;2022-12-18T03:20:39;97189.91;;;-6.00;100.00
58385;BME280;44185;47.844;8.966;2022-12-18T03:23:11;97181.25;;;-5.93;100.00
58385;BME280;44185;47.844;8.966;2022-12-18T03:25:41;97183.84;;;-5.99;100.00
58385;BME280;44185;47.844;8.966;2022-12-18T03:28:09;97175.25;;;-5.92;100.00
58385;BME280;44185;47.844;8.966;2022-12-18T03:30:38;97177.00;;;-5.97;100.00
58385;BME280;44185;47.844;8.966;2022-12-18T03:33:08;97183.09;;;-6.14;100.00
58385;BME280;44185;47.844;8.966;2022-12-18T03:35:38;97179.66;;;-6.18;100.00
58385;BME280;44185;47.844;8.966;2022-12-18T03:38:04;97184.81;;;-6.11;100.00
58385;BME280;44185;47.844;8.966;2022-12-18T03:40:35;97186.47;;;-6.03;100.00
58385;BME280;44185;47.844;8.966;2022-12-18T03:43:10;97187.31;;;-5.97;100.00
58385;BME280;44185;47.844;8.966;2022-12-18T03:45:43;97194.94;;;-5.80;100.00
58385;BME280;44185;47.844;8.966;2022-12-18T03:48:17;97200.06;;;-5.75;100.00
58385;BME280;44185;47.844;8.966;2022-12-18T03:50:47;97196.63;;;-5.76;100.00
58385;BME280;44185;47.844;8.966;2022-12-18T03:53:24;97197.50;;;-5.71;100.00
58385;BME280;44185;47.844;8.966;2022-12-18T03:55:51;97204.38;;;-5.77;100.00
58385;BME280;44185;47.844;8.966;2022-12-18T03:58:19;97197.44;;;-5.64;100.00
58385;BME280;44185;47.844;8.966;2022-12-18T04:00:52;97197.47;;;-5.69;100.00
58385;BME280;44185;47.844;8.966;2022-12-18T04:03:20;97208.69;;;-5.75;100.00
58385;BME280;44185;47.844;8.966;2022-12-18T04:05:48;97194.97;;;-5.83;100.00
58385;BME280;44185;47.844;8.966;2022-12-18T04:08:15;97199.25;;;-5.84;100.00
58385;BME280;44185;47.844;8.966;2022-12-18T04:10:41;97206.97;;;-5.84;100.00
58385;BME280;44185;47.844;8.966;2022-12-18T04:13:06;97206.13;;;-5.83;100.00
58385;BME280;44185;47.844;8.966;2022-12-18T04:15:34;97207.81;;;-5.75;100.00
58385;BME280;44185;47.844;8.966;2022-12-18T04:18:01;97204.34;;;-5.70;100.00
58385;BME280;44185;47.844;8.966;2022-12-18T04:20:27;97208.66;;;-5.69;100.00
58385;BME280;44185;47.844;8.966;2022-12-18T04:22:53;97206.94;;;-5.68;100.00
58385;BME280;44185;47.844;8.966;2022-12-18T04:25:18;97215.56;;;-5.74;100.00
58385;BME280;44185;47.844;8.966;2022-12-18T04:27:44;97219.03;;;-5.84;100.00
58385;BME280;44185;47.844;8.966;2022-12-18T04:30:10;97217.34;;;-5.87;100.00
58385;BME280;44185;47.844;8.966;2022-12-18T04:32:36;97219.06;;;-5.87;100.00
58385;BME280;44185;47.844;8.966;2022-12-18T04:35:03;97218.13;;;-5.74;100.00
58385;BME280;44185;47.844;8.966;2022-12-18T04:37:29;97218.94;;;-5.64;100.00
58385;BME280;44185;47.844;8.966;2022-12-18T04:39:55;97213.72;;;-5.54;100.00
58385;BME280;44185;47.844;8.966;2022-12-18T04:42:20;97224.91;;;-5.52;100.00
58385;BME280;44185;47.844;8.966;2022-12-18T04:44:45;97229.22;;;-5.53;100.00
58385;BME280;44185;47.844;8.966;2022-12-18T04:47:11;97228.38;;;-5.55;100.00
58385;BME280;44185;47.844;8.966;2022-12-18T04:49:36;97226.66;;;-5.58;100.00
58385;BME280;44185;47.844;8.966;2022-12-18T04:52:03;97232.69;;;-5.63;100.00
58385;BME280;44185;47.844;8.966;2022-12-18T04:54:29;97230.16;;;-5.68;100.00
58385;BME280;44185;47.844;8.966;2022-12-18T04:56:55;97226.72;;;-5.72;100.00
58385;BME280;44185;47.844;8.966;2022-12-18T04:59:20;97228.41;;;-5.63;100.00
58385;BME280;44185;47.844;8.966;2022-12-18T05:01:45;97230.91;;;-5.50;100.00
58385;BME280;44185;47.844;8.966;2022-12-18T05:04:11;97224.97;;;-5.63;100.00
58385;BME280;44185;47.844;8.966;2022-12-18T05:06:36;97230.16;;;-5.71;100.00
58385;BME280;44185;47.844;8.966;2022-12-18T05:09:03;97221.53;;;-5.67;100.00
58385;BME280;44185;47.844;8.966;2022-12-18T05:11:29;97225.81;;;-5.61;100.00
58385;BME280;44185;47.844;8.966;2022-12-18T05:13:57;97226.69;;;-5.70;100.00
58385;BME280;44185;47.844;8.966;2022-12-18T05:16:23;97239.53;;;-5.59;100.00
58385;BME280;44185;47.844;8.966;2022-12-18T05:18:48;97236.13;;;-5.58;100.00
58385;BME280;44185;47.844;8.966;2022-12-18T05:21:14;97248.19;;;-5.70;100.00
58385;BME280;44185;47.844;8.966;2022-12-18T05:23:39;97252.50;;;-5.70;100.00
58385;BME280;44185;47.844;8.966;2022-12-18T05:26:07;97246.41;;;-5.60;100.00
58385;BME280;44185;47.844;8.966;2022-12-18T05:28:34;97251.59;;;-5.64;100.00
58385;BME280;44185;47.844;8.966;2022-12-18T05:31:01;97255.91;;;-5.65;100.00
58385;BME280;44185;47.844;8.966;2022-12-18T05:33:29;97250.72;;;-5.52;100.00
58385;BME280;44185;47.844;8.966;2022-12-18T05:35:56;97249.84;;;-5.50;100.00
58385;BME280;44185;47.844;8.966;2022-12-18T05:38:23;97262.78;;;-5.67;100.00
58385;BME280;44185;47.844;8.966;2022-12-18T05:40:49;97261.09;;;-5.76;100.00
58385;BME280;44185;47.844;8.966;2022-12-18T05:43:17;97261.13;;;-5.84;100.00
58385;BME280;44185;47.844;8.966;2022-12-18T05:45:42;97265.41;;;-5.75;100.00
58385;BME280;44185;47.844;8.966;2022-12-18T05:48:09;97260.25;;;-5.75;100.00
58385;BME280;44185;47.844;8.966;2022-12-18T05:50:40;97255.13;;;-5.86;100.00
58385;BME280;44185;47.844;8.966;2022-12-18T05:53:06;97253.44;;;-5.93;100.00
58385;BME280;44185;47.844;8.966;2022-12-18T05:55:33;97257.72;;;-5.87;100.00
58385;BME280;44185;47.844;8.966;2022-12-18T05:57:59;97253.44;;;-5.92;100.00
58385;BME280;44185;47.844;8.966;2022-12-18T06:00:26;97255.16;;;-5.94;100.00
58385;BME280;44185;47.844;8.966;2022-12-18T06:02:51;97254.34;;;-6.04;100.00
58385;BME280;44185;47.844;8.966;2022-12-18T06:05:17;97252.59;;;-6.02;100.00
58385;BME280;44185;47.844;8.966;2022-12-18T06:07:42;97248.28;;;-5.96;100.00
58385;BME280;44185;47.844;8.966;2022-12-18T06:10:08;97253.47;;;-6.01;100.00
58385;BME280;44185;47.844;8.966;2022-12-18T06:12:33;97247.44;;;-5.95;100.00
58385;BME280;44185;47.844;8.966;2022-12-18T06:14:59;97250.03;;;-5.98;100.00
58385;BME280;44185;47.844;8.966;2022-12-18T06:17:28;97244.84;;;-5.97;100.00
58385;BME280;44185;47.844;8.966;2022-12-18T06:19:54;97249.09;;;-5.86;100.00
58385;BME280;44185;47.844;8.966;2022-12-18T06:22:20;97252.53;;;-5.83;100.00
58385;BME280;44185;47.844;8.966;2022-12-18T06:24:45;97259.38;;;-5.75;100.00
58385;BME280;44185;47.844;8.966;2022-12-18T06:27:11;97264.56;;;-5.83;100.00
58385;BME280;44185;47.844;8.966;2022-12-18T06:29:36;97265.44;;;-5.83;100.00
58385;BME280;44185;47.844;8.966;2022-12-18T06:32:02;97274.03;;;-5.88;100.00
58385;BME280;44185;47.844;8.966;2022-12-18T06:34:31;97275.78;;;-5.87;100.00
58385;BME280;44185;47.844;8.966;2022-12-18T06:36:56;97281.78;;;-5.82;100.00
58385;BME280;44185;47.844;8.966;2022-12-18T06:39:22;97283.47;;;-5.83;100.00
58385;BME280;44185;47.844;8.966;2022-12-18T06:41:49;97290.34;;;-5.71;100.00
58385;BME280;44185;47.844;8.966;2022-12-18T06:44:15;97289.47;;;-5.73;100.00
58385;BME280;44185;47.844;8.966;2022-12-18T06:46:40;97292.94;;;-5.77;100.00
58385;BME280;44185;47.844;8.966;2022-12-18T06:49:05;97283.47;;;-5.78;100.00
58385;BME280;44185;47.844;8.966;2022-12-18T06:51:32;97288.63;;;-5.83;100.00
58385;BME280;44185;47.844;8.966;2022-12-18T06:53:58;97292.06;;;-5.77;100.00
58385;BME280;44185;47.844;8.966;2022-12-18T06:56:23;97300.63;;;-5.66;100.00
58385;BME280;44185;47.844;8.966;2022-12-18T06:58:51;97297.25;;;-5.79;100.00
58385;BME280;44185;47.844;8.966;2022-12-18T07:01:17;97295.53;;;-5.85;100.00
58385;BME280;44185;47.844;8.966;2022-12-18T07:03:42;97298.97;;;-5.86;100.00
58385;BME280;44185;47.844;8.966;2022-12-18T07:06:13;97307.56;;;-5.88;100.00
58385;BME280;44185;47.844;8.966;2022-12-18T07:08:42;97319.56;;;-5.80;100.00
58385;BME280;44185;47.844;8.966;2022-12-18T07:11:08;97317.03;;;-5.92;100.00
58385;BME280;44185;47.844;8.966;2022-12-18T07:13:33;97320.44;;;-5.85;100.00
58385;BME280;44185;47.844;8.966;2022-12-18T07:16:07;97318.78;;;-6.00;100.00
58385;BME280;44185;47.844;8.966;2022-12-18T07:18:33;97320.47;;;-5.98;100.00
58385;BME280;44185;47.844;8.966;2022-12-18T07:21:02;97321.34;;;-5.93;100.00
58385;BME280;44185;47.844;8.966;2022-12-18T07:23:28;97314.41;;;-5.78;100.00
58385;BME280;44185;47.844;8.966;2022-12-18T07:25:55;97322.13;;;-5.69;100.00
58385;BME280;44185;47.844;8.966;2022-12-18T07:28:20;97331.59;;;-5.75;100.00
58385;BME280;44185;47.844;8.966;2022-12-18T07:30:45;97327.34;;;-5.87;100.00
58385;BME280;44185;47.844;8.966;2022-12-18T07:33:11;97329.91;;;-5.91;100.00
58385;BME280;44185;47.844;8.966;2022-12-18T07:35:36;97330.72;;;-5.68;100.00
58385;BME280;44185;47.844;8.966;2022-12-18T07:38:02;97339.28;;;-5.64;100.00
58385;BME280;44185;47.844;8.966;2022-12-18T07:40:27;97334.09;;;-5.52;100.00
58385;BME280;44185;47.844;8.966;2022-12-18T07:42:54;97328.91;;;-5.39;100.00
58385;BME280;44185;47.844;8.966;2022-12-18T07:45:19;97323.75;;;-5.39;100.00
58385;BME280;44185;47.844;8.966;2022-12-18T07:47:45;97332.38;;;-5.50;100.00
58385;BME280;44185;47.844;8.966;2022-12-18T07:50:10;97328.03;;;-5.38;100.00
58385;BME280;44185;47.844;8.966;2022-12-18T07:52:36;97328.91;;;-5.39;100.00
58385;BME280;44185;47.844;8.966;2022-12-18T07:55:01;97335.78;;;-5.41;100.00
58385;BME280;44185;47.844;8.966;2022-12-18T07:57:27;97334.06;;;-5.45;100.00
58385;BME280;44185;47.844;8.966;2022-12-18T07:59:54;97346.97;;;-5.49;100.00
58385;BME280;44185;47.844;8.966;2022-12-18T08:02:19;97342.69;;;-5.45;100.00
58385;BME280;44185;47.844;8.966;2022-12-18T08:04:45;97348.72;;;-5.44;100.00
58385;BME280;44185;47.844;8.966;2022-12-18T08:07:10;97343.53;;;-5.40;100.00
58385;BME280;44185;47.844;8.966;2022-12-18T08:09:35;97347.81;;;-5.34;100.00
58385;BME280;44185;47.844;8.966;2022-12-18T08:12:01;97352.97;;;-5.39;100.00
58385;BME280;44185;47.844;8.966;2022-12-18T08:14:26;97357.25;;;-5.34;100.00
58385;BME280;44185;47.844;8.966;2022-12-18T08:16:53;97359.84;;;-5.34;100.00
58385;BME280;44185;47.844;8.966;2022-12-18T08:19:19;97353.81;;;-5.32;100.00
58385;BME280;44185;47.844;8.966;2022-12-18T08:21:44;97358.06;;;-5.18;100.00
58385;BME280;44185;47.844;8.966;2022-12-18T08:24:10;97358.09;;;-5.23;100.00
58385;BME280;44185;47.844;8.966;2022-12-18T08:26:35;97359.78;;;-5.20;100.00
58385;BME280;44185;47.844;8.966;2022-12-18T08:29:01;97354.56;;;-5.11;100.00
58385;BME280;44185;47.844;8.966;2022-12-18T08:31:27;97356.31;;;-5.10;100.00
58385;BME280;44185;47.844;8.966;2022-12-18T08:33:55;97354.53;;;-5.06;100.00
58385;BME280;44185;47.844;8.966;2022-12-18T08:36:21;97357.09;;;-5.00;100.00
58385;BME280;44185;47.844;8.966;2022-12-18T08:38:47;97358.00;;;-5.06;100.00
58385;BME280;44185;47.844;8.966;2022-12-18T08:41:15;97364.81;;;-4.98;100.00
58385;BME280;44185;47.844;8.966;2022-12-18T08:43:41;97370.88;;;-5.01;100.00
58385;BME280;44185;47.844;8.966;2022-12-18T08:46:07;97367.41;;;-4.97;100.00
58385;BME280;44185;47.844;8.966;2022-12-18T08:48:33;97360.50;;;-4.88;100.00
58385;BME280;44185;47.844;8.966;2022-12-18T08:50:59;97353.56;;;-4.85;100.00
58385;BME280;44185;47.844;8.966;2022-12-18T08:53:26;97359.53;;;-4.73;100.00
58385;BME280;44185;47.844;8.966;2022-12-18T08:55:51;97357.09;;;-5.00;100.00
58385;BME280;44185;47.844;8.966;2022-12-18T08:58:17;97365.69;;;-4.96;100.00
58385;BME280;44185;47.844;8.966;2022-12-18T09:00:43;97356.16;;;-4.85;100.00
58385;BME280;44185;47.844;8.966;2022-12-18T09:03:11;97360.53;;;-4.95;100.00
58385;BME280;44185;47.844;8.966;2022-12-18T09:05:36;97353.59;;;-4.89;100.00
58385;BME280;44185;47.844;8.966;2022-12-18T09:08:03;97344.13;;;-4.86;100.00
58385;BME280;44185;47.844;8.966;2022-12-18T09:10:29;97349.22;;;-4.76;100.00
58385;BME280;44185;47.844;8.966;2022-12-18T09:12:55;97336.22;;;-4.62;100.00
58385;BME280;44185;47.844;8.966;2022-12-18T09:15:20;97339.75;;;-4.76;100.00
58385;BME280;44185;47.844;8.966;2022-12-18T09:17:45;97340.66;;;-4.85;100.00
58385;BME280;44185;47.844;8.966;2022-12-18T09:20:11;97339.75;;;-4.76;100.00
58385;BME280;44185;47.844;8.966;2022-12-18T09:22:36;97338.00;;;-4.71;100.00
58385;BME280;44185;47.844;8.966;2022-12-18T09:25:06;97337.97;;;-4.72;100.00
58385;BME280;44185;47.844;8.966;2022-12-18T09:27:32;97331.09;;;-4.72;100.00
58385;BME280;44185;47.844;8.966;2022-12-18T09:29:57;97340.66;;;-4.83;100.00
58385;BME280;44185;47.844;8.966;2022-12-18T09:32:23;97342.34;;;-4.79;100.00
58385;BME280;44185;47.844;8.966;2022-12-18T09:34:48;97351.84;;;-4.81;100.00
58385;BME280;44185;47.844;8.966;2022-12-18T09:37:14;97344.91;;;-4.77;100.00
58385;BME280;44185;47.844;8.966;2022-12-18T09:39:39;97347.38;;;-4.62;100.00
58385;BME280;44185;47.844;8.966;2022-12-18T09:42:16;97348.25;;;-4.60;100.00
58385;BME280;44185;47.844;8.966;2022-12-18T09:44:48;97343.88;;;-4.53;100.00
58385;BME280;44185;47.844;8.966;2022-12-18T09:47:18;97348.97;;;-4.42;100.00
58385;BME280;44185;47.844;8.966;2022-12-18T09:49:46;97352.41;;;-4.38;100.00
58385;BME280;44185;47.844;8.966;2022-12-18T09:52:17;97348.00;;;-4.30;100.00
58385;BME280;44185;47.844;8.966;2022-12-18T09:54:48;97350.66;;;-4.33;100.00
58385;BME280;44185;47.844;8.966;2022-12-18T09:57:18;97347.13;;;-4.27;100.00
58385;BME280;44185;47.844;8.966;2022-12-18T09:59:48;97345.44;;;-4.31;100.00
58385;BME280;44185;47.844;8.966;2022-12-18T10:02:17;97351.38;;;-4.21;100.00
58385;BME280;44185;47.844;8.966;2022-12-18T10:04:43;97344.63;;;-4.37;100.00
58385;BME280;44185;47.844;8.966;2022-12-18T10:07:14;97348.06;;;-4.36;100.00
58385;BME280;44185;47.844;8.966;2022-12-18T10:09:49;97353.19;;;-4.31;100.00
58385;BME280;44185;47.844;8.966;2022-12-18T10:12:24;97344.56;;;-4.29;100.00
58385;BME280;44185;47.844;8.966;2022-12-18T10:14:57;97357.47;;;-4.26;100.00
58385;BME280;44185;47.844;8.966;2022-12-18T10:17:33;97359.13;;;-4.17;100.00
58385;BME280;44185;47.844;8.966;2022-12-18T10:20:11;97354.63;;;-3.97;100.00
58385;BME280;44185;47.844;8.966;2022-12-18T10:22:44;97354.47;;;-3.80;100.00
58385;BME280;44185;47.844;8.966;2022-12-18T10:25:20;97345.03;;;-3.84;100.00
58385;BME280;44185;47.844;8.966;2022-12-18T10:27:51;97346.69;;;-3.78;100.00
58385;BME280;44185;47.844;8.966;2022-12-18T10:30:21;97346.72;;;-3.80;100.00
58385;BME280;44185;47.844;8.966;2022-12-18T10:32:47;97343.16;;;-3.71;100.00
58385;BME280;44185;47.844;8.966;2022-12-18T10:35:22;97342.47;;;-3.86;100.00
58385;BME280;44185;47.844;8.966;2022-12-18T10:38:02;97350.97;;;-3.74;100.00
58385;BME280;44185;47.844;8.966;2022-12-18T10:40:28;97351.94;;;-3.86;100.00
58385;BME280;44185;47.844;8.966;2022-12-18T10:43:05;97353.53;;;-3.73;100.00
58385;BME280;44185;47.844;8.966;2022-12-18T10:45:31;97351.00;;;-3.79;100.00
58385;BME280;44185;47.844;8.966;2022-12-18T10:47:56;97346.81;;;-3.93;100.00
58385;BME280;44185;47.844;8.966;2022-12-18T10:50:26;97346.78;;;-3.88;100.00
58385;BME280;44185;47.844;8.966;2022-12-18T10:52:58;97347.69;;;-3.92;100.00
58385;BME280;44185;47.844;8.966;2022-12-18T10:55:25;97350.22;;;-3.87;100.00
58385;BME280;44185;47.844;8.966;2022-12-18T10:57:52;97345.03;;;-3.87;100.00
58385;BME280;44185;47.844;8.966;2022-12-18T11:00:28;97346.78;;;-3.88;100.00
58385;BME280;44185;47.844;8.966;2022-12-18T11:02:55;97350.28;;;-3.91;100.00
58385;BME280;44185;47.844;8.966;2022-12-18T11:05:29;97346.91;;;-4.00;100.00
58385;BME280;44185;47.844;8.966;2022-12-18T11:07:55;97339.84;;;-3.83;100.00
58385;BME280;44185;47.844;8.966;2022-12-18T11:10:25;97332.91;;;-3.79;100.00
58385;BME280;44185;47.844;8.966;2022-12-18T11:12:51;97332.06;;;-3.81;100.00
58385;BME280;44185;47.844;8.966;2022-12-18T11:15:20;97330.38;;;-3.82;100.00
58385;BME280;44185;47.844;8.966;2022-12-18T11:17:49;97326.97;;;-3.89;100.00
58385;BME280;44185;47.844;8.966;2022-12-18T11:20:23;97322.56;;;-3.81;100.00
58385;BME280;44185;47.844;8.966;2022-12-18T11:22:56;97327.84;;;-3.88;100.00
58385;BME280;44185;47.844;8.966;2022-12-18T11:25:22;97322.78;;;-4.03;100.00
58385;BME280;44185;47.844;8.966;2022-12-18T11:27:49;97325.34;;;-3.99;100.00
58385;BME280;44185;47.844;8.966;2022-12-18T11:30:23;97320.91;;;-3.86;100.00
58385;BME280;44185;47.844;8.966;2022-12-18T11:32:52;97315.81;;;-3.94;100.00
58385;BME280;44185;47.844;8.966;2022-12-18T11:35:21;97317.53;;;-3.95;100.00
58385;BME280;44185;47.844;8.966;2022-12-18T11:37:53;97321.72;;;-3.80;100.00
58385;BME280;44185;47.844;8.966;2022-12-18T11:40:24;97315.75;;;-3.88;100.00
58385;BME280;44185;47.844;8.966;2022-12-18T11:42:54;97320.16;;;-3.96;100.00
58385;BME280;44185;47.844;8.966;2022-12-18T11:45:27;97311.31;;;-3.75;100.00
58385;BME280;44185;47.844;8.966;2022-12-18T11:47:59;97311.47;;;-3.92;100.00
58385;BME280;44185;47.844;8.966;2022-12-18T11:50:31;97300.50;;;-4.16;100.00
58385;BME280;44185;47.844;8.966;2022-12-18T11:52:59;97304.06;;;-4.30;100.00
58385;BME280;44185;47.844;8.966;2022-12-18T11:55:31;97291.84;;;-4.14;100.00
58385;BME280;44185;47.844;8.966;2022-12-18T11:58:09;97292.47;;;-3.86;100.00
58385;BME280;44185;47.844;8.966;2022-12-18T12:00:43;97287.97;;;-3.70;100.00
58385;BME280;44185;47.844;8.966;2022-12-18T12:03:35;97289.66;;;-3.67;100.00
58385;BME280;44185;47.844;8.966;2022-12-18T12:06:10;97289.72;;;-3.72;100.00
58385;BME280;44185;47.844;8.966;2022-12-18T12:08:55;97302.78;;;-3.83;100.00
58385;BME280;44185;47.844;8.966;2022-12-18T12:11:30;97294.38;;;-4.04;100.00
58385;BME280;44185;47.844;8.966;2022-12-18T12:14:13;97301.25;;;-4.05;100.00
58385;BME280;44185;47.844;8.966;2022-12-18T12:16:46;97300.19;;;-3.83;100.00
58385;BME280;44185;47.844;8.966;2022-12-18T12:19:27;97295.91;;;-3.87;100.00
58385;BME280;44185;47.844;8.966;2022-12-18T12:22:05;97297.56;;;-3.80;100.00
58385;BME280;44185;47.844;8.966;2022-12-18T12:24:46;97292.41;;;-3.80;100.00
58385;BME280;44185;47.844;8.966;2022-12-18T12:27:22;97283.63;;;-3.68;100.00
58385;BME280;44185;47.844;8.966;2022-12-18T12:30:00;97277.63;;;-3.70;100.00
58385;BME280;44185;47.844;8.966;2022-12-18T12:32:42;97279.47;;;-3.80;100.00
58385;BME280;44185;47.844;8.966;2022-12-18T12:35:23;97278.38;;;-3.62;100.00
58385;BME280;44185;47.844;8.966;2022-12-18T12:38:01;97272.47;;;-3.72;100.00
58385;BME280;44185;47.844;8.966;2022-12-18T12:40:31;97272.47;;;-3.73;100.00
58385;BME280;44185;47.844;8.966;2022-12-18T12:43:02;97277.78;;;-3.87;100.00
58385;BME280;44185;47.844;8.966;2022-12-18T12:45:30;97272.69;;;-3.91;100.00
58385;BME280;44185;47.844;8.966;2022-12-18T12:47:59;97274.25;;;-3.78;100.00
58385;BME280;44185;47.844;8.966;2022-12-18T12:50:30;97272.47;;;-3.72;100.00
58385;BME280;44185;47.844;8.966;2022-12-18T12:52:59;97271.44;;;-3.58;100.00
58385;BME280;44185;47.844;8.966;2022-12-18T12:55:28;97261.31;;;-3.78;100.00